Time;durP1;ratioP1;P1;durP2;ratioP2;P2;SDS_P1;SDS_P2;PMS_P1;PMS_P2;Temp;Humidity;BMP_temperature;BMP_pressure;BME280_temperature;BME280_humidity;BME280_pressure;Samples;Min_cycle;Max_cycle;Signal;HPM_P1;HPM_P2
2023/03/16 00:01:07;;;;;;;18.17;9.50;;;2.60;99.90;;;;;;7587131;19;20046;-73
2023/03/16 00:03:39;;;;;;;23.67;12.82;;;2.60;99.90;;;;;;7602646;19;20437;-74
2023/03/16 00:06:11;;;;;;;24.92;12.02;;;2.60;99.90;;;;;;7596749;19;20019;-73
2023/03/16 00:08:43;;;;;;;23.23;11.27;;;2.50;99.90;;;;;;7596093;19;20332;-73
2023/03/16 00:11:16;;;;;;;18.95;10.25;;;2.50;99.90;;;;;;7601821;19;20490;-74
2023/03/16 00:13:48;;;;;;;19.60;10.23;;;2.60;99.90;;;;;;7606367;19;20040;-74
2023/03/16 00:16:20;;;;;;;21.63;10.63;;;2.50;99.90;;;;;;7585866;19;20098;-73
2023/03/16 00:18:53;;;;;;;22.67;12.77;;;2.50;99.90;;;;;;7603323;19;20454;-74
2023/03/16 00:21:25;;;;;;;22.05;10.82;;;2.50;99.90;;;;;;7596484;19;20010;-73
2023/03/16 00:24:02;;;;;;;19.67;10.32;;;2.50;99.90;;;;;;7612278;19;20061;-73
2023/03/16 00:26:34;;;;;;;23.50;11.40;;;2.50;99.90;;;;;;7601657;19;20014;-73
2023/03/16 00:29:06;;;;;;;21.42;11.32;;;2.50;99.90;;;;;;7600932;19;20035;-73
2023/03/16 00:31:42;;;;;;;22.80;11.55;;;2.50;99.90;;;;;;7605430;19;20019;-73
2023/03/16 00:34:15;;;;;;;21.55;10.00;;;2.40;99.90;;;;;;7596448;19;20018;-73
2023/03/16 00:36:47;;;;;;;22.93;10.43;;;2.40;99.90;;;;;;7609711;19;20074;-74
2023/03/16 00:39:19;;;;;;;23.65;10.30;;;2.40;99.90;;;;;;7604004;19;20014;-73
2023/03/16 00:41:57;;;;;;;21.17;10.98;;;2.30;99.90;;;;;;7603892;19;20016;-73
2023/03/16 00:44:30;;;;;;;20.88;9.57;;;2.20;99.90;;;;;;7590480;19;20025;-74
2023/03/16 00:47:03;;;;;;;20.65;10.77;;;2.20;99.90;;;;;;7594730;19;20018;-73
2023/03/16 00:49:35;;;;;;;21.63;10.98;;;2.20;99.90;;;;;;7598530;19;20717;-73
2023/03/16 00:52:13;;;;;;;21.33;10.05;;;2.10;99.90;;;;;;7595566;19;20405;-73
2023/03/16 00:54:46;;;;;;;19.42;10.23;;;2.00;99.90;;;;;;7589791;19;20641;-73
2023/03/16 00:57:20;;;;;;;18.52;9.48;;;2.00;99.90;;;;;;7581704;19;20017;-73
2023/03/16 00:59:52;;;;;;;19.90;10.70;;;2.00;99.90;;;;;;7588672;19;20622;-73
2023/03/16 01:02:26;;;;;;;18.25;9.27;;;2.10;99.90;;;;;;7592501;19;20019;-73
2023/03/16 01:04:58;;;;;;;21.27;10.70;;;2.00;99.90;;;;;;7601283;19;20011;-73
2023/03/16 01:07:30;;;;;;;19.40;10.32;;;2.10;99.90;;;;;;7593645;19;20014;-74
2023/03/16 01:10:03;;;;;;;21.33;10.43;;;2.10;99.90;;;;;;7586623;19;20026;-74
2023/03/16 01:12:35;;;;;;;20.55;11.13;;;2.00;99.90;;;;;;7590833;19;20042;-73
2023/03/16 01:15:09;;;;;;;28.25;11.27;;;1.90;99.90;;;;;;7587193;19;20022;-74
2023/03/16 01:17:41;;;;;;;23.85;10.90;;;1.90;99.90;;;;;;7606187;19;20397;-74
2023/03/16 01:20:18;;;;;;;19.25;10.75;;;1.80;99.90;;;;;;7609170;19;20018;-74
2023/03/16 01:22:50;;;;;;;16.52;9.73;;;1.70;99.90;;;;;;7610530;19;20015;-76
2023/03/16 01:25:23;;;;;;;17.80;9.70;;;1.60;99.90;;;;;;7603331;19;20125;-75
2023/03/16 01:27:55;;;;;;;27.30;11.80;;;1.60;99.90;;;;;;7600776;19;20014;-74
2023/03/16 01:30:27;;;;;;;26.00;10.90;;;1.60;99.90;;;;;;7601925;19;20024;-74
2023/03/16 01:33:00;;;;;;;18.13;9.57;;;1.60;99.90;;;;;;7600637;19;20630;-74
2023/03/16 01:35:33;;;;;;;16.67;9.73;;;1.60;99.90;;;;;;7598493;19;20378;-74
2023/03/16 01:38:05;;;;;;;17.43;10.40;;;1.60;99.90;;;;;;7599646;19;20022;-74
2023/03/16 01:40:37;;;;;;;18.92;9.75;;;1.70;99.90;;;;;;7592860;19;20062;-73
2023/03/16 01:43:10;;;;;;;22.70;10.30;;;1.70;99.90;;;;;;7586551;19;20657;-74
2023/03/16 01:46:00;;;;;;;15.93;9.13;;;1.60;99.90;;;;;;7593080;19;20015;-74
2023/03/16 01:48:41;;;;;;;18.38;9.82;;;1.70;99.90;;;;;;7587062;19;20026;-74
2023/03/16 01:51:37;;;;;;;17.98;9.95;;;1.80;99.90;;;;;;7607150;19;20086;-73
2023/03/16 01:54:28;;;;;;;20.48;10.68;;;1.80;99.90;;;;;;7604033;19;20789;-73
2023/03/16 01:57:13;;;;;;;22.52;10.05;;;1.70;99.90;;;;;;7581396;19;20021;-73
2023/03/16 01:59:56;;;;;;;22.70;10.93;;;1.70;99.90;;;;;;7582239;19;20116;-74
2023/03/16 02:02:30;;;;;;;20.45;10.55;;;1.70;99.90;;;;;;7562696;19;20351;-74
2023/03/16 02:05:25;;;;;;;21.48;10.75;;;1.70;99.90;;;;;;7585737;19;21102;-73
2023/03/16 02:08:00;;;;;;;19.50;10.18;;;1.70;99.90;;;;;;7602206;19;20110;-73
2023/03/16 02:10:34;;;;;;;22.23;11.45;;;1.60;99.90;;;;;;7593390;19;20053;-73
2023/03/16 02:13:07;;;;;;;21.63;11.70;;;1.50;99.90;;;;;;7585490;19;20502;-74
2023/03/16 02:15:39;;;;;;;25.53;12.47;;;1.50;99.90;;;;;;7596431;19;20010;-74
2023/03/16 02:18:12;;;;;;;29.73;14.20;;;1.30;99.90;;;;;;7604219;19;20014;-74
2023/03/16 02:21:15;;;;;;;23.85;12.20;;;1.20;99.90;;;;;;7607180;19;20021;-74
2023/03/16 02:23:50;;;;;;;25.45;12.50;;;1.10;99.90;;;;;;7598832;19;20022;-74
2023/03/16 02:26:46;;;;;;;20.38;10.50;;;1.10;99.90;;;;;;7583853;19;20054;-74
2023/03/16 02:29:58;;;;;;;24.98;10.73;;;1.00;99.90;;;;;;7579759;19;20029;-74
2023/03/16 02:32:32;;;;;;;18.02;9.55;;;1.20;99.90;;;;;;7595519;19;20023;-73
2023/03/16 02:35:06;;;;;;;21.25;9.82;;;1.20;99.90;;;;;;7598118;19;20022;-74
2023/03/16 02:37:40;;;;;;;21.27;10.98;;;1.20;99.90;;;;;;7586995;19;20026;-74
2023/03/16 02:40:23;;;;;;;24.42;11.70;;;1.10;99.90;;;;;;7585313;19;20033;-73
2023/03/16 02:43:01;;;;;;;25.65;11.18;;;1.10;99.90;;;;;;7580766;19;20010;-74
2023/03/16 02:45:45;;;;;;;19.35;10.23;;;1.00;99.90;;;;;;7583573;19;20023;-73
2023/03/16 02:48:24;;;;;;;18.83;10.25;;;1.00;99.90;;;;;;7569485;19;20014;-74
2023/03/16 02:50:57;;;;;;;19.75;11.27;;;0.90;99.90;;;;;;7598236;19;20868;-74
2023/03/16 02:53:31;;;;;;;23.77;11.07;;;0.90;99.90;;;;;;7597170;19;20019;-74
2023/03/16 02:56:05;;;;;;;22.13;10.18;;;0.90;99.90;;;;;;7589496;19;20825;-74
2023/03/16 02:58:40;;;;;;;18.77;10.07;;;0.90;99.90;;;;;;7560898;19;20083;-74
2023/03/16 03:01:17;;;;;;;20.90;11.45;;;0.80;99.90;;;;;;7590448;19;20391;-73
2023/03/16 03:03:49;;;;;;;23.50;10.97;;;0.80;99.90;;;;;;7586798;19;20022;-74
2023/03/16 03:06:23;;;;;;;19.25;10.30;;;0.80;99.90;;;;;;7594159;19;21092;-74
2023/03/16 03:08:55;;;;;;;18.85;9.48;;;0.80;99.90;;;;;;7593396;19;20094;-74
2023/03/16 03:11:27;;;;;;;20.83;10.10;;;0.80;99.90;;;;;;7573177;19;20021;-74
2023/03/16 03:14:00;;;;;;;22.20;11.80;;;0.80;99.90;;;;;;7587537;19;20015;-74
2023/03/16 03:16:33;;;;;;;18.70;9.68;;;0.80;99.90;;;;;;7578178;19;20049;-73
2023/03/16 03:19:05;;;;;;;17.42;9.60;;;0.70;99.90;;;;;;7605698;19;20607;-74
2023/03/16 03:21:40;;;;;;;18.40;9.55;;;0.70;99.90;;;;;;7580457;19;20056;-74
2023/03/16 03:24:13;;;;;;;17.30;9.73;;;0.60;99.90;;;;;;7585048;19;20157;-74
2023/03/16 03:26:46;;;;;;;;;;;0.60;99.90;;;;;;7578793;19;20017;-74
2023/03/16 03:29:23;;;;;;;18.95;9.40;;;0.70;99.90;;;;;;7593999;19;19919;-74
2023/03/16 03:31:55;;;;;;;19.13;8.85;;;0.60;99.90;;;;;;7574199;19;20061;-75
2023/03/16 03:34:30;;;;;;;19.33;10.25;;;0.60;99.90;;;;;;7576725;19;20555;-75
2023/03/16 03:37:02;;;;;;;;;;;0.60;99.90;;;;;;7586697;19;20499;-75
2023/03/16 03:39:34;;;;;;;30.23;10.23;;;0.60;99.90;;;;;;7568337;19;19929;-74
2023/03/16 03:42:07;;;;;;;18.42;8.90;;;0.60;99.90;;;;;;7597126;19;20015;-74
2023/03/16 03:44:39;;;;;;;16.58;9.90;;;0.60;99.90;;;;;;7580093;19;20015;-75
2023/03/16 03:47:14;;;;;;;23.58;10.32;;;0.60;99.90;;;;;;7580951;19;20016;-75
2023/03/16 03:49:47;;;;;;;21.05;9.70;;;0.50;99.90;;;;;;7571386;19;20454;-75
2023/03/16 03:52:19;;;;;;;19.10;10.52;;;0.50;99.90;;;;;;7582728;19;20064;-77
2023/03/16 03:54:52;;;;;;;21.80;10.13;;;0.50;99.90;;;;;;7564509;19;21614;-75
2023/03/16 03:57:25;;;;;;;20.35;10.50;;;0.50;99.90;;;;;;7580612;19;20047;-75
2023/03/16 03:59:57;;;;;;;18.58;10.15;;;0.50;99.90;;;;;;7580681;19;20028;-74
2023/03/16 04:02:46;;;;;;;18.88;9.75;;;0.50;99.90;;;;;;7587518;19;22849;-74
2023/03/16 04:05:27;;;;;;;23.05;9.23;;;0.50;99.90;;;;;;7588097;19;20784;-74
2023/03/16 04:07:59;;;;;;;20.95;9.45;;;0.40;99.90;;;;;;7589283;19;20022;-73
2023/03/16 04:10:31;;;;;;;17.55;9.32;;;0.40;99.90;;;;;;7576380;19;20022;-74
2023/03/16 04:13:04;;;;;;;17.52;9.55;;;0.40;99.90;;;;;;7574576;19;20022;-75
2023/03/16 04:15:38;;;;;;;20.48;10.60;;;0.40;99.90;;;;;;7570409;19;20011;-74
2023/03/16 04:18:37;;;;;;;14.05;8.85;;;0.40;99.90;;;;;;7572796;19;20018;-75
2023/03/16 04:21:16;;;;;;;22.02;9.18;;;0.30;99.90;;;;;;7595068;19;20019;-75
2023/03/16 04:23:53;;;;;;;15.07;8.63;;;0.30;99.90;;;;;;7565552;19;20018;-75
2023/03/16 04:26:31;;;;;;;17.80;8.40;;;0.30;99.90;;;;;;7570190;19;20022;-75
2023/03/16 04:29:03;;;;;;;18.67;9.18;;;0.30;99.90;;;;;;7545533;19;20411;-77
2023/03/16 04:31:38;;;;;;;18.88;9.48;;;0.30;99.90;;;;;;7588916;19;20114;-76
2023/03/16 04:34:15;;;;;;;23.52;9.98;;;0.20;99.90;;;;;;7588085;19;20002;-77
2023/03/16 04:36:51;;;;;;;19.65;9.98;;;0.30;99.90;;;;;;7571616;19;20021;-77
2023/03/16 04:39:24;;;;;;;20.65;10.55;;;0.20;99.90;;;;;;7581802;19;20055;-77
2023/03/16 04:41:58;;;;;;;18.48;10.63;;;0.20;99.90;;;;;;7575947;19;20025;-76
2023/03/16 04:44:30;;;;;;;21.33;11.18;;;0.20;99.90;;;;;;7582716;19;20018;-76
2023/03/16 04:47:03;;;;;;;23.17;11.43;;;0.20;99.90;;;;;;7571502;19;20023;-76
2023/03/16 04:49:42;;;;;;;22.65;10.90;;;0.20;99.90;;;;;;7542974;19;20533;-76
2023/03/16 04:52:15;;;;;;;17.85;9.93;;;0.20;99.90;;;;;;7570904;19;20060;-76
2023/03/16 04:54:47;;;;;;;25.10;10.95;;;0.20;99.90;;;;;;7591413;19;20015;-76
2023/03/16 04:57:21;;;;;;;19.13;10.35;;;0.10;99.90;;;;;;7606270;19;20642;-76
2023/03/16 05:00:00;;;;;;;24.48;11.60;;;0.20;99.90;;;;;;7620187;19;20862;-77
2023/03/16 05:02:42;;;;;;;23.88;11.63;;;0.10;99.90;;;;;;7612533;19;20040;-76
2023/03/16 05:05:15;;;;;;;19.08;10.45;;;0.10;99.90;;;;;;7577343;19;20022;-77
2023/03/16 05:07:49;;;;;;;25.23;13.17;;;0.10;99.90;;;;;;7575631;19;20082;-75
2023/03/16 05:10:22;;;;;;;24.02;12.98;;;0.00;99.90;;;;;;7545464;19;20051;-76
2023/03/16 05:12:55;;;;;;;22.65;12.52;;;0.00;99.90;;;;;;7560620;19;20361;-76
2023/03/16 05:15:28;;;;;;;26.65;12.30;;;0.00;99.90;;;;;;7546924;19;20018;-77
2023/03/16 05:18:05;;;;;;;21.48;11.68;;;0.20;99.90;;;;;;7572094;19;20022;-78
2023/03/16 05:20:37;;;;;;;25.55;11.32;;;0.20;99.90;;;;;;7562551;19;20025;-77
2023/03/16 05:23:10;;;;;;;27.95;13.43;;;0.10;99.90;;;;;;7584899;19;20613;-76
2023/03/16 05:25:50;;;;;;;25.08;13.68;;;0.10;99.90;;;;;;7589410;19;20493;-77
2023/03/16 05:28:24;;;;;;;29.40;15.40;;;0.10;99.90;;;;;;7602102;19;20105;-76
2023/03/16 05:31:10;;;;;;;31.00;13.65;;;0.10;99.90;;;;;;7593469;19;20010;-78
2023/03/16 05:33:47;;;;;;;29.23;14.43;;;0.00;99.90;;;;;;7581148;19;20029;-77
2023/03/16 05:36:23;;;;;;;28.73;14.40;;;0.00;99.90;;;;;;7561879;19;20470;-77
2023/03/16 05:38:59;;;;;;;36.58;16.70;;;0.10;99.90;;;;;;7564578;19;20861;-78
2023/03/16 05:41:41;;;;;;;25.60;13.52;;;0.10;99.90;;;;;;7564580;19;20015;-78
2023/03/16 05:44:33;;;;;;;31.33;14.55;;;0.20;99.90;;;;;;7561978;19;20031;-79
2023/03/16 05:47:17;;;;;;;32.13;16.05;;;0.20;99.90;;;;;;7568365;19;20022;-78
2023/03/16 05:49:54;;;;;;;33.72;15.63;;;0.10;99.90;;;;;;7571977;19;20022;-78
2023/03/16 05:52:34;;;;;;;32.58;16.52;;;0.10;99.90;;;;;;7575673;19;20400;-77
2023/03/16 05:55:15;;;;;;;33.50;15.57;;;0.20;99.90;;;;;;7570468;19;20023;-76
2023/03/16 05:57:49;;;;;;;34.03;16.10;;;0.20;99.90;;;;;;7559682;19;20036;-77
2023/03/16 06:00:24;;;;;;;35.15;17.15;;;0.10;99.90;;;;;;7569397;19;20478;-79
2023/03/16 06:03:10;;;;;;;35.75;17.33;;;0.10;99.90;;;;;;7541092;19;20574;-73
2023/03/16 06:05:42;;;;;;;34.83;17.23;;;0.10;99.90;;;;;;7523539;19;20958;-74
2023/03/16 06:08:15;;;;;;;34.63;16.23;;;0.10;99.90;;;;;;7565823;19;20018;-73
2023/03/16 06:10:52;;;;;;;37.72;17.50;;;0.10;99.90;;;;;;7561430;19;20129;-74
2023/03/16 06:13:24;;;;;;;;;;;0.10;99.90;;;;;;7586574;19;20130;-75
2023/03/16 06:15:56;;;;;;;33.22;16.30;;;0.20;99.90;;;;;;7558850;19;20116;-72
2023/03/16 06:18:30;;;;;;;38.05;19.05;;;0.20;99.90;;;;;;7574473;19;20030;-73
2023/03/16 06:21:03;;;;;;;42.88;18.25;;;0.20;99.90;;;;;;7539548;19;20018;-73
2023/03/16 06:23:37;;;;;;;44.47;19.90;;;0.40;99.90;;;;;;7526416;19;20019;-73
2023/03/16 06:26:11;;;;;;;42.33;19.00;;;0.40;99.90;;;;;;7561265;19;20026;-72
2023/03/16 06:28:47;;;;;;;41.58;18.67;;;0.40;99.90;;;;;;7561189;19;20046;-72
2023/03/16 06:31:20;;;;;;;41.08;18.63;;;0.50;99.90;;;;;;7583592;19;20029;-72
2023/03/16 06:33:52;;;;;;;39.85;19.30;;;0.60;99.90;;;;;;7555923;19;20025;-72
2023/03/16 06:36:25;;;;;;;45.15;20.17;;;0.60;99.90;;;;;;7562827;19;20120;-73
2023/03/16 06:39:00;;;;;;;42.63;19.92;;;0.70;99.90;;;;;;7554564;19;20010;-73
2023/03/16 06:41:41;;;;;;;48.03;20.88;;;0.70;99.90;;;;;;7607265;19;20428;-72
2023/03/16 06:44:14;;;;;;;47.28;19.67;;;0.70;99.90;;;;;;7595512;19;20030;-72
2023/03/16 06:47:00;;;;;;;49.03;22.15;;;0.80;99.90;;;;;;7589423;19;20019;-74
2023/03/16 06:49:32;;;;;;;44.72;20.77;;;0.80;99.90;;;;;;7592457;19;20372;-73
2023/03/16 06:52:09;;;;;;;43.70;21.20;;;0.80;99.90;;;;;;7589498;19;20016;-73
2023/03/16 06:54:41;;;;;;;43.05;21.70;;;0.90;99.90;;;;;;7591360;19;20972;-73
2023/03/16 06:57:13;;;;;;;45.30;20.55;;;1.00;99.90;;;;;;7595985;19;20018;-72
2023/03/16 06:59:47;;;;;;;45.20;19.80;;;1.10;99.90;;;;;;7586641;19;20657;-74
2023/03/16 07:02:22;;;;;;;43.83;20.48;;;1.10;99.90;;;;;;7574673;19;20116;-73
2023/03/16 07:04:54;;;;;;;52.20;21.98;;;1.00;99.90;;;;;;7603470;19;20025;-73
2023/03/16 07:07:27;;;;;;;49.60;21.67;;;1.10;99.90;;;;;;7595037;19;20026;-73
2023/03/16 07:10:00;;;;;;;41.50;18.55;;;1.20;99.90;;;;;;7575835;19;20010;-73
2023/03/16 07:12:32;;;;;;;43.28;18.55;;;1.20;99.90;;;;;;7578978;19;20022;-74
2023/03/16 07:15:05;;;;;;;42.03;18.48;;;1.20;99.90;;;;;;7580670;19;20627;-73
2023/03/16 07:17:39;;;;;;;36.80;17.98;;;1.10;99.90;;;;;;7594115;19;20785;-72
2023/03/16 07:20:12;;;;;;;40.22;17.58;;;1.30;99.90;;;;;;7595729;19;20021;-73
2023/03/16 07:22:46;;;;;;;39.60;18.20;;;1.20;99.90;;;;;;7589463;19;20105;-73
2023/03/16 07:25:19;;;;;;;41.78;18.65;;;1.20;99.90;;;;;;7593248;19;20014;-73
2023/03/16 07:27:56;;;;;;;37.83;16.50;;;1.20;99.90;;;;;;7602790;19;20034;-72
2023/03/16 07:30:33;;;;;;;32.67;16.05;;;1.40;99.90;;;;;;7589608;19;20018;-73
2023/03/16 07:33:06;;;;;;;36.92;17.13;;;1.40;99.90;;;;;;7588536;19;20025;-73
2023/03/16 07:35:38;;;;;;;38.90;17.52;;;1.40;99.90;;;;;;7609732;19;20029;-72
2023/03/16 07:38:11;;;;;;;42.53;19.42;;;1.40;99.90;;;;;;7608936;19;20899;-72
2023/03/16 07:40:44;;;;;;;;;;;1.40;99.90;;;;;;7611284;19;20657;-73
2023/03/16 07:43:23;;;;;;;38.67;17.13;;;1.50;99.90;;;;;;7598026;19;19915;-73
2023/03/16 07:46:00;;;;;;;35.35;16.45;;;1.60;99.90;;;;;;7588283;19;20046;-73
2023/03/16 07:48:33;;;;;;;30.98;16.83;;;1.70;99.90;;;;;;7601912;19;20018;-72
2023/03/16 07:51:07;;;;;;;33.83;16.88;;;1.70;99.90;;;;;;7596746;19;20015;-73
2023/03/16 07:53:40;;;;;;;29.58;16.08;;;1.70;99.90;;;;;;7590228;19;20947;-73
2023/03/16 07:56:25;;;;;;;36.33;17.15;;;1.80;99.90;;;;;;7592761;19;20116;-72
2023/03/16 07:59:05;;;;;;;38.45;18.55;;;1.90;99.90;;;;;;7594070;19;20014;-72
2023/03/16 08:01:37;;;;;;;34.23;17.40;;;1.90;99.90;;;;;;7597330;19;20029;-73
2023/03/16 08:04:11;;;;;;;36.20;17.10;;;2.00;99.90;;;;;;7588252;19;20115;-72
2023/03/16 08:06:44;;;;;;;35.53;17.95;;;2.00;99.90;;;;;;7602889;19;20021;-72
2023/03/16 08:09:16;;;;;;;34.13;16.00;;;2.10;99.90;;;;;;7607304;19;20029;-72
2023/03/16 08:11:48;;;;;;;35.13;18.63;;;2.20;99.90;;;;;;7598426;19;20196;-72
2023/03/16 08:14:20;;;;;;;35.75;15.88;;;2.30;99.90;;;;;;7604780;19;20430;-72
2023/03/16 08:17:20;;;;;;;33.70;16.25;;;2.40;99.90;;;;;;7601525;19;20576;-71
2023/03/16 08:19:53;;;;;;;32.50;17.05;;;2.50;99.90;;;;;;7591275;19;20029;-72
2023/03/16 08:22:27;;;;;;;;;;;2.60;99.90;;;;;;7583461;19;20022;-72
2023/03/16 08:24:59;;;;;;;31.10;14.77;;;2.70;99.90;;;;;;7580974;19;19929;-72
2023/03/16 08:27:32;;;;;;;29.13;15.40;;;2.70;99.90;;;;;;7595276;19;20011;-72
2023/03/16 08:30:11;;;;;;;33.97;16.55;;;2.70;99.90;;;;;;7598885;19;20019;-72
2023/03/16 08:32:47;;;;;;;30.70;16.02;;;2.70;99.90;;;;;;7595616;19;20019;-73
2023/03/16 08:35:20;;;;;;;31.50;15.77;;;2.70;99.90;;;;;;7600364;19;20006;-73
2023/03/16 08:37:53;;;;;;;30.00;15.18;;;2.70;99.90;;;;;;7585931;19;20098;-73
2023/03/16 08:40:28;;;;;;;33.60;15.18;;;2.70;99.90;;;;;;7606214;19;20030;-72
2023/03/16 08:43:03;;;;;;;29.20;15.18;;;2.80;99.90;;;;;;7591718;19;20530;-72
2023/03/16 08:45:36;;;;;;;;;;;2.70;99.90;;;;;;7591626;19;20026;-72
2023/03/16 08:48:11;;;;;;;29.50;14.77;;;2.70;99.90;;;;;;7597045;19;19933;-71
2023/03/16 08:50:45;;;;;;;34.00;16.35;;;2.70;99.90;;;;;;7605391;19;20024;-72
2023/03/16 08:53:18;;;;;;;30.35;16.17;;;2.70;99.90;;;;;;7593936;19;20017;-72
2023/03/16 08:55:50;;;;;;;29.17;14.43;;;2.80;99.90;;;;;;7596247;19;20800;-73
2023/03/16 08:58:22;;;;;;;31.67;15.88;;;2.90;99.90;;;;;;7591600;19;20283;-72
2023/03/16 09:00:55;;;;;;;30.90;16.10;;;2.90;99.90;;;;;;7598506;19;20030;-72
2023/03/16 09:03:27;;;;;;;35.00;17.05;;;3.00;99.90;;;;;;7591018;19;20815;-72
2023/03/16 09:06:02;;;;;;;31.60;15.63;;;3.10;99.90;;;;;;7605416;19;20086;-72
2023/03/16 09:08:35;;;;;;;32.30;17.00;;;3.20;99.90;;;;;;7599870;19;20629;-73
2023/03/16 09:11:11;;;;;;;27.55;14.57;;;3.40;99.90;;;;;;7599882;19;20011;-72
2023/03/16 09:13:44;;;;;;;33.58;16.35;;;3.50;99.90;;;;;;7589070;19;20032;-72
2023/03/16 09:16:16;;;;;;;29.73;16.58;;;3.60;99.90;;;;;;7605825;19;20018;-72
2023/03/16 09:18:48;;;;;;;25.13;14.63;;;3.60;99.90;;;;;;7598132;19;20030;-71
2023/03/16 09:21:20;;;;;;;28.50;15.70;;;3.60;99.90;;;;;;7603175;19;20024;-72
2023/03/16 09:23:53;;;;;;;26.10;14.32;;;3.70;99.90;;;;;;7581863;19;20033;-73
2023/03/16 09:26:27;;;;;;;28.95;14.68;;;3.80;99.90;;;;;;7598738;19;20022;-74
2023/03/16 09:28:59;;;;;;;25.90;14.20;;;3.80;99.90;;;;;;7595676;19;20018;-72
2023/03/16 09:31:32;;;;;;;33.08;17.05;;;3.90;99.90;;;;;;7602406;19;20018;-72
2023/03/16 09:34:05;;;;;;;30.17;16.20;;;3.90;99.90;;;;;;7603506;19;20090;-71
2023/03/16 09:36:37;;;;;;;28.20;15.27;;;4.00;99.90;;;;;;7611314;19;20033;-72
2023/03/16 09:39:10;;;;;;;26.77;14.85;;;4.00;99.90;;;;;;7600108;19;20059;-72
2023/03/16 09:41:48;;;;;;;26.77;13.88;;;4.10;99.90;;;;;;7597910;19;20053;-72
2023/03/16 09:44:39;;;;;;;24.08;13.98;;;4.20;99.90;;;;;;7601031;19;20359;-72
2023/03/16 09:47:15;;;;;;;28.88;14.48;;;4.10;99.90;;;;;;7602503;19;20019;-73
2023/03/16 09:49:49;;;;;;;23.67;13.52;;;4.10;99.90;;;;;;7589218;19;20627;-73
2023/03/16 09:52:29;;;;;;;23.35;13.35;;;4.10;99.90;;;;;;7555431;19;20023;-73
2023/03/16 09:55:25;;;;;;;23.48;12.80;;;4.20;99.90;;;;;;7578929;19;20030;-74
2023/03/16 09:58:00;;;;;;;27.40;15.25;;;4.30;99.90;;;;;;7564033;19;21554;-74
2023/03/16 10:01:15;;;;;;;26.13;14.88;;;4.50;99.90;;;;;;7570696;19;20455;-73
2023/03/16 10:04:30;;;;;;;30.88;15.45;;;4.70;99.90;;;;;;7585723;19;20026;-74
2023/03/16 10:07:05;;;;;;;25.58;14.30;;;4.80;99.90;;;;;;7597176;19;20053;-74
2023/03/16 10:09:43;;;;;;;23.90;13.88;;;4.70;99.90;;;;;;7612678;19;20022;-72
2023/03/16 10:12:16;;;;;;;26.80;14.63;;;4.60;99.90;;;;;;7599544;19;20045;-72
2023/03/16 10:14:57;;;;;;;22.13;13.07;;;4.60;99.90;;;;;;7608212;19;20018;-73
2023/03/16 10:17:44;;;;;;;24.42;12.82;;;4.60;99.90;;;;;;7601965;19;20037;-72
2023/03/16 10:20:21;;;;;;;26.45;13.85;;;4.60;99.90;;;;;;7605894;19;20034;-73
2023/03/16 10:22:54;;;;;;;23.52;12.82;;;4.60;99.90;;;;;;7601220;19;20106;-73
2023/03/16 10:25:38;;;;;;;29.40;14.98;;;4.80;99.90;;;;;;7605631;19;20876;-73
2023/03/16 10:28:16;;;;;;;26.85;14.48;;;4.90;99.90;;;;;;7613171;19;20571;-72
2023/03/16 10:30:50;;;;;;;28.15;15.05;;;4.90;99.90;;;;;;7592350;19;20826;-73
2023/03/16 10:33:32;;;;;;;26.48;13.73;;;4.90;99.90;;;;;;7605413;19;20026;-73
2023/03/16 10:36:14;;;;;;;26.85;14.55;;;4.80;99.90;;;;;;7611930;19;20089;-74
2023/03/16 10:38:58;;;;;;;26.13;12.48;;;4.90;99.90;;;;;;7596257;19;20019;-73
2023/03/16 10:41:42;;;;;;;24.77;13.55;;;5.00;99.90;;;;;;7601845;19;20057;-73
2023/03/16 10:44:24;;;;;;;25.35;13.45;;;5.00;99.90;;;;;;7592311;19;20025;-73
2023/03/16 10:47:24;;;;;;;26.58;13.43;;;5.10;99.90;;;;;;7582469;19;20030;-73
2023/03/16 10:49:57;;;;;;;25.75;14.02;;;5.00;99.90;;;;;;7578218;19;20019;-73
2023/03/16 10:52:38;;;;;;;28.02;15.55;;;4.90;99.90;;;;;;7584199;19;20605;-72
2023/03/16 10:55:18;;;;;;;22.33;12.88;;;5.10;99.90;;;;;;7590096;19;20015;-73
2023/03/16 10:57:53;;;;;;;22.13;13.50;;;5.40;99.90;;;;;;7589695;19;20011;-74
2023/03/16 11:00:35;;;;;;;30.08;15.32;;;5.50;99.90;;;;;;7581628;19;20189;-73
2023/03/16 11:03:33;;;;;;;23.58;13.82;;;5.50;99.90;;;;;;7587620;19;20598;-74
2023/03/16 11:06:29;;;;;;;29.75;15.15;;;5.50;99.90;;;;;;7608063;19;20107;-72
2023/03/16 11:09:12;;;;;;;25.45;13.63;;;5.70;99.90;;;;;;7601243;19;20051;-74
2023/03/16 11:11:48;;;;;;;24.73;13.82;;;5.90;99.90;;;;;;7587085;19;20687;-73
2023/03/16 11:14:26;;;;;;;25.63;14.45;;;6.00;99.90;;;;;;7576957;19;20049;-73
2023/03/16 11:17:04;;;;;;;22.00;12.38;;;6.00;99.90;;;;;;7594091;19;20882;-73
2023/03/16 11:19:45;;;;;;;22.00;13.13;;;6.00;99.90;;;;;;7591026;19;20016;-73
2023/03/16 11:22:24;;;;;;;20.67;12.77;;;6.10;99.90;;;;;;7557857;19;20126;-73
2023/03/16 11:25:01;;;;;;;22.13;12.55;;;6.40;99.90;;;;;;7591109;19;21850;-74
2023/03/16 11:27:51;;;;;;;19.85;12.48;;;6.60;99.90;;;;;;7591124;19;20512;-73
2023/03/16 11:30:35;;;;;;;21.35;12.32;;;6.70;99.90;;;;;;7593110;19;20022;-73
2023/03/16 11:33:10;;;;;;;19.85;12.35;;;6.90;99.90;;;;;;7566931;19;20010;-73
2023/03/16 11:35:54;;;;;;;22.10;12.82;;;7.00;99.90;;;;;;7603369;19;20047;-72
2023/03/16 11:38:51;;;;;;;19.25;12.57;;;7.20;99.90;;;;;;7594930;19;20085;-73
2023/03/16 11:41:52;;;;;;;16.73;11.10;;;7.40;99.90;;;;;;7575575;19;20025;-72
2023/03/16 11:44:37;;;;;;;18.35;11.38;;;8.10;94.00;;;;;;7598069;19;20085;-72
2023/03/16 11:47:34;;;;;;;17.08;11.25;;;8.90;91.50;;;;;;7596124;19;20089;-72
2023/03/16 11:50:14;;;;;;;18.75;10.70;;;9.80;86.40;;;;;;7585063;19;20029;-73
2023/03/16 11:53:12;;;;;;;16.50;10.98;;;10.70;84.30;;;;;;7578998;19;20034;-73
2023/03/16 11:56:13;;;;;;;13.82;9.65;;;11.50;75.30;;;;;;7563782;19;20347;-73
2023/03/16 11:59:07;;;;;;;13.35;8.88;;;11.90;72.40;;;;;;7595873;19;20039;-74
2023/03/16 12:01:42;;;;;;;;;;;12.00;68.40;;;;;;7602366;19;20026;-73
2023/03/16 12:04:40;;;;;;;15.43;9.40;;;12.30;69.50;;;;;;7607123;19;20529;-72
2023/03/16 12:07:19;;;;;;;13.50;9.38;;;12.50;68.20;;;;;;7595018;19;20032;-72
2023/03/16 12:10:01;;;;;;;16.23;9.65;;;12.30;68.10;;;;;;7601515;19;20026;-72
2023/03/16 12:12:42;;;;;;;13.25;8.75;;;12.10;69.30;;;;;;7603009;19;20006;-73
2023/03/16 12:15:43;;;;;;;13.20;8.18;;;12.00;68.10;;;;;;7596724;19;21718;-73
2023/03/16 12:18:54;;;;;;;14.00;9.35;;;11.90;67.20;;;;;;7572284;19;20035;-73
2023/03/16 12:21:36;;;;;;;13.48;8.75;;;12.50;65.90;;;;;;7605962;19;20018;-76
2023/03/16 12:24:17;;;;;;;10.27;8.10;;;12.50;64.30;;;;;;7586808;19;20018;-73
2023/03/16 12:26:51;;;;;;;13.00;7.60;;;12.90;63.80;;;;;;7581889;19;20361;-74
2023/03/16 12:29:34;;;;;;;9.80;7.00;;;13.10;61.60;;;;;;7586006;19;20066;-73
2023/03/16 12:32:14;;;;;;;10.23;7.05;;;13.30;60.90;;;;;;7589711;19;20025;-75
2023/03/16 12:34:58;;;;;;;11.13;7.25;;;13.10;61.10;;;;;;7564783;19;20026;-73
2023/03/16 12:37:49;;;;;;;14.88;8.25;;;13.00;60.80;;;;;;7585934;19;20014;-73
2023/03/16 12:40:39;;;;;;;10.98;7.65;;;13.50;60.80;;;;;;7564656;19;20026;-74
2023/03/16 12:43:32;;;;;;;10.05;7.47;;;14.20;58.80;;;;;;7593562;19;20662;-73
2023/03/16 12:46:17;;;;;;;10.27;6.97;;;14.90;56.00;;;;;;7606190;19;20863;-73
2023/03/16 12:48:55;;;;;;;9.77;6.90;;;15.40;55.60;;;;;;7608415;19;20018;-73
2023/03/16 12:51:35;;;;;;;8.80;6.35;;;15.90;54.10;;;;;;7605533;19;20026;-73
2023/03/16 12:54:19;;;;;;;7.03;6.10;;;16.30;53.20;;;;;;7553012;19;20017;-73
2023/03/16 12:56:55;;;;;;;;;;;17.00;51.80;;;;;;7580726;19;20040;-73
2023/03/16 12:59:37;;;;;;;6.93;5.45;;;16.90;49.90;;;;;;7584283;19;19923;-72
2023/03/16 13:02:23;;;;;;;9.35;6.50;;;16.90;49.50;;;;;;7569973;19;20023;-73
2023/03/16 13:04:59;;;;;;;6.28;4.60;;;16.80;48.90;;;;;;7587904;19;20025;-72
2023/03/16 13:07:32;;;;;;;8.57;5.45;;;16.70;46.90;;;;;;7594444;19;20025;-72
2023/03/16 13:10:12;;;;;;;6.50;4.80;;;17.00;47.00;;;;;;7583386;19;20983;-72
2023/03/16 13:12:46;;;;;;;7.07;5.10;;;16.90;45.70;;;;;;7598852;19;20018;-72
2023/03/16 13:15:20;;;;;;;5.90;5.00;;;17.10;45.70;;;;;;7593591;19;21041;-74
2023/03/16 13:18:13;;;;;;;7.15;5.43;;;17.30;46.60;;;;;;7603401;19;20048;-74
2023/03/16 13:20:56;;;;;;;8.30;6.00;;;18.10;45.60;;;;;;7592095;19;20857;-74
2023/03/16 13:23:49;;;;;;;6.47;5.22;;;18.30;46.00;;;;;;7574514;19;20018;-74
2023/03/16 13:26:50;;;;;;;7.75;5.03;;;18.40;45.80;;;;;;7593544;19;20529;-72
2023/03/16 13:29:27;;;;;;;8.82;4.97;;;18.90;44.70;;;;;;7584217;19;20543;-72
2023/03/16 13:32:02;;;;;;;6.13;4.70;;;18.40;44.00;;;;;;7594339;19;20014;-73
2023/03/16 13:34:43;;;;;;;4.93;4.40;;;18.60;43.40;;;;;;7584491;19;20514;-73